Time;durP1;ratioP1;P1;durP2;ratioP2;P2;SDS_P1;SDS_P2;PMS_P1;PMS_P2;Temp;Humidity;BMP_temperature;BMP_pressure;BME280_temperature;BME280_humidity;BME280_pressure;Samples;Min_cycle;Max_cycle;Signal;HPM_P1;HPM_P2
2022/03/18 00:01:48;;;;;;;53.88;38.25;;;9.10;87.60;;;;;;5050581;28;20190;-63
2022/03/18 00:04:15;;;;;;;52.50;38.47;;;9.10;87.50;;;;;;5049742;28;20244;-64
2022/03/18 00:06:42;;;;;;;49.92;35.78;;;9.10;87.50;;;;;;5050392;28;20244;-63
2022/03/18 00:09:09;;;;;;;56.58;40.10;;;9.10;87.60;;;;;;5050604;28;20205;-64
2022/03/18 00:11:36;;;;;;;51.03;38.03;;;9.10;87.60;;;;;;5051227;28;20199;-67
2022/03/18 00:14:05;;;;;;;52.60;39.13;;;9.10;87.50;;;;;;5052404;28;20216;-64
2022/03/18 00:16:31;;;;;;;54.72;39.17;;;9.10;87.80;;;;;;5050234;28;20273;-64
2022/03/18 00:19:00;;;;;;;53.33;41.40;;;9.10;88.30;;;;;;5051375;28;20189;-64
2022/03/18 00:21:27;;;;;;;56.75;39.28;;;9.10;88.10;;;;;;5050079;28;20218;-66
2022/03/18 00:23:54;;;;;;;55.80;40.08;;;9.10;87.90;;;;;;5045899;28;20194;-63
2022/03/18 00:26:22;;;;;;;58.78;44.30;;;9.10;88.00;;;;;;5050374;28;20202;-65
2022/03/18 00:28:49;;;;;;;54.40;39.35;;;9.10;88.10;;;;;;5051803;28;20614;-64
2022/03/18 00:31:17;;;;;;;53.95;38.45;;;9.10;88.00;;;;;;5049833;28;20589;-65
2022/03/18 00:33:44;;;;;;;54.28;38.70;;;9.10;88.30;;;;;;5054332;28;20761;-64
2022/03/18 00:36:11;;;;;;;54.10;40.38;;;9.10;88.10;;;;;;5051240;28;20209;-64
2022/03/18 00:38:39;;;;;;;51.55;40.22;;;9.00;88.00;;;;;;5051522;28;20190;-64
2022/03/18 00:41:06;;;;;;;54.05;40.42;;;9.00;88.30;;;;;;5051524;28;20285;-63
2022/03/18 00:43:34;;;;;;;56.88;40.25;;;9.00;88.50;;;;;;5068447;28;20186;-64
2022/03/18 00:46:01;;;;;;;51.28;39.88;;;9.00;88.50;;;;;;5071530;28;20204;-64
2022/03/18 00:54:00;;;;;;;60.85;41.17;;;9.00;87.70;;;;;;5053195;28;20224;-64
2022/03/18 00:56:28;;;;;;;56.85;38.95;;;8.90;87.50;;;;;;5071464;28;20198;-65
2022/03/18 00:58:56;;;;;;;55.20;40.75;;;8.90;87.90;;;;;;5052373;28;20187;-64
2022/03/18 01:01:26;;;;;;;51.88;36.88;;;8.90;87.80;;;;;;5051719;28;20250;-64
2022/03/18 01:03:55;;;;;;;49.30;37.00;;;8.90;87.80;;;;;;5068923;28;20192;-65
2022/03/18 01:06:22;;;;;;;55.00;38.38;;;8.80;87.40;;;;;;5055061;28;20202;-65
2022/03/18 01:08:49;;;;;;;46.90;35.53;;;8.80;87.30;;;;;;5058104;28;20281;-64
2022/03/18 01:11:16;;;;;;;48.75;36.78;;;8.70;87.20;;;;;;5074307;28;20194;-65
2022/03/18 01:13:43;;;;;;;50.38;35.42;;;8.70;87.80;;;;;;5069199;28;20182;-64
2022/03/18 01:16:10;;;;;;;46.97;33.53;;;8.60;87.80;;;;;;5055068;28;20197;-64
2022/03/18 01:18:37;;;;;;;49.88;35.95;;;8.60;87.80;;;;;;5059160;28;20243;-65
2022/03/18 01:21:05;;;;;;;44.47;33.83;;;8.50;87.80;;;;;;5075111;28;20193;-65
2022/03/18 01:23:32;;;;;;;47.45;34.95;;;8.50;88.10;;;;;;5071867;28;20210;-65
2022/03/18 01:25:59;;;;;;;52.05;33.72;;;8.40;88.30;;;;;;5055131;28;20195;-64
2022/03/18 01:28:27;;;;;;;49.58;35.67;;;8.40;88.60;;;;;;5056277;28;20190;-64
2022/03/18 01:30:55;;;;;;;46.60;35.03;;;8.30;88.00;;;;;;5075015;28;20197;-64
2022/03/18 01:33:22;;;;;;;47.22;35.92;;;8.30;88.10;;;;;;5067032;28;20241;-64
2022/03/18 01:35:49;;;;;;;51.88;36.45;;;8.20;87.90;;;;;;5055000;28;20225;-64
2022/03/18 01:38:17;;;;;;;51.15;35.05;;;8.10;87.60;;;;;;5060584;28;20197;-64
2022/03/18 01:40:44;;;;;;;48.55;35.05;;;8.00;87.40;;;;;;5074584;28;20530;-64
2022/03/18 01:43:12;;;;;;;52.00;36.97;;;8.00;87.40;;;;;;5069453;28;20187;-64
2022/03/18 01:45:39;;;;;;;51.83;35.53;;;7.80;87.90;;;;;;5054673;28;20722;-68
2022/03/18 01:48:07;;;;;;;52.55;40.00;;;7.70;88.20;;;;;;5057793;28;20189;-64
2022/03/18 01:50:34;;;;;;;52.65;38.45;;;7.70;88.20;;;;;;5055047;28;20190;-64
2022/03/18 01:53:01;;;;;;;47.25;36.30;;;7.60;88.70;;;;;;5059876;28;20243;-64
2022/03/18 01:55:31;;;;;;;53.70;37.30;;;7.60;89.30;;;;;;5074671;28;20217;-64
2022/03/18 01:57:58;;;;;;;50.45;36.72;;;7.60;89.70;;;;;;5069167;28;20187;-64
2022/03/18 02:00:26;;;;;;;56.15;37.65;;;7.60;90.00;;;;;;5054637;28;20201;-64
2022/03/18 02:02:53;;;;;;;50.00;37.22;;;7.60;90.00;;;;;;5067539;28;20233;-64
2022/03/18 02:05:20;;;;;;;51.17;37.63;;;7.60;90.00;;;;;;5074276;28;20190;-64
2022/03/18 02:07:48;;;;;;;62.03;39.15;;;7.50;90.20;;;;;;5072295;28;20190;-64
2022/03/18 02:10:15;;;;;;;59.30;39.30;;;7.50;90.20;;;;;;5074105;28;20644;-64
2022/03/18 02:12:43;;;;;;;52.47;38.65;;;7.50;90.40;;;;;;5061001;28;20187;-64
2022/03/18 02:15:11;;;;;;;55.92;41.13;;;7.50;90.50;;;;;;5054088;28;20228;-64
2022/03/18 02:17:38;;;;;;;55.35;37.53;;;7.50;90.50;;;;;;5065115;28;20193;-64
2022/03/18 02:20:06;;;;;;;55.75;38.50;;;7.50;90.50;;;;;;5074184;28;20609;-64
2022/03/18 02:22:38;;;;;;;47.67;35.33;;;7.40;90.30;;;;;;5063624;28;20191;-64
2022/03/18 02:25:09;;;;;;;47.10;35.05;;;7.40;90.40;;;;;;5054084;28;20222;-64
2022/03/18 02:27:37;;;;;;;44.75;33.83;;;7.40;90.30;;;;;;5063357;28;20185;-65
2022/03/18 02:30:05;;;;;;;44.25;32.65;;;7.40;90.20;;;;;;5073825;28;20285;-64
2022/03/18 02:32:34;;;;;;;45.45;34.10;;;7.40;89.80;;;;;;5064646;28;20193;-64
2022/03/18 02:35:01;;;;;;;47.45;33.83;;;7.40;89.60;;;;;;5053528;28;20233;-64
2022/03/18 02:37:29;;;;;;;48.03;34.03;;;7.40;89.30;;;;;;5060524;28;20637;-64
2022/03/18 02:39:58;;;;;;;48.78;33.97;;;7.30;89.20;;;;;;5073626;28;20524;-64
2022/03/18 02:42:26;;;;;;;49.88;35.80;;;7.30;89.20;;;;;;5067179;28;20189;-64
2022/03/18 02:44:53;;;;;;;49.30;34.47;;;7.30;89.20;;;;;;5053542;28;20194;-64
2022/03/18 02:47:21;;;;;;;50.38;36.35;;;7.20;89.50;;;;;;5061906;28;20178;-65
2022/03/18 02:49:48;;;;;;;47.60;32.80;;;7.20;90.00;;;;;;5053780;28;20194;-64
2022/03/18 02:52:15;;;;;;;50.75;35.88;;;7.20;90.10;;;;;;5060978;28;20197;-64
2022/03/18 02:54:42;;;;;;;51.25;36.08;;;7.20;90.10;;;;;;5073313;28;20252;-64
2022/03/18 02:57:11;;;;;;;41.35;28.55;;;7.20;90.20;;;;;;5066659;28;20190;-64
2022/03/18 02:59:37;;;;;;;45.15;30.05;;;7.20;90.40;;;;;;5053318;28;20197;-64
2022/03/18 03:02:05;;;;;;;50.00;35.63;;;7.10;90.60;;;;;;5057932;28;20546;-64
2022/03/18 03:04:32;;;;;;;43.92;33.00;;;7.10;90.70;;;;;;5073302;28;20233;-64
2022/03/18 03:09:43;;;;;;;47.55;34.72;;;7.10;90.40;;;;;;5053520;28;20256;-64
2022/03/18 03:12:12;;;;;;;49.20;34.75;;;7.10;90.40;;;;;;5057046;28;20186;-65
2022/03/18 03:14:39;;;;;;;48.50;33.65;;;7.10;90.30;;;;;;5072834;28;20225;-64
2022/03/18 03:17:06;;;;;;;43.15;32.88;;;7.10;90.50;;;;;;5059642;28;20703;-65
2022/03/18 03:19:33;;;;;;;52.42;37.22;;;7.10;90.50;;;;;;5052871;28;20270;-64
2022/03/18 03:22:00;;;;;;;51.03;35.10;;;7.00;90.50;;;;;;5070710;28;20188;-64
2022/03/18 03:24:28;;;;;;;56.00;37.33;;;7.00;90.50;;;;;;5072823;28;20267;-64
2022/03/18 03:26:55;;;;;;;50.30;35.22;;;7.00;90.70;;;;;;5055638;28;20662;-66
2022/03/18 03:29:23;;;;;;;52.55;36.58;;;7.00;90.90;;;;;;5064671;28;20196;-64
2022/03/18 03:31:50;;;;;;;55.45;38.47;;;7.00;90.80;;;;;;5072640;28;20201;-64
2022/03/18 03:34:17;;;;;;;55.47;40.45;;;7.00;91.10;;;;;;5060388;28;20237;-64
2022/03/18 03:36:44;;;;;;;55.42;37.60;;;7.00;91.20;;;;;;5052524;28;20190;-64
2022/03/18 03:39:11;;;;;;;54.13;37.22;;;6.90;91.00;;;;;;5061738;28;20247;-65
2022/03/18 03:41:38;;;;;;;63.55;37.38;;;6.90;91.20;;;;;;5072196;28;20644;-64
2022/03/18 03:44:06;;;;;;;58.92;39.60;;;6.90;91.20;;;;;;5063526;28;20186;-64
2022/03/18 03:46:34;;;;;;;61.67;40.08;;;6.90;91.30;;;;;;5052482;28;20194;-64
2022/03/18 03:49:01;;;;;;;59.15;41.00;;;6.80;91.40;;;;;;5053292;28;20637;-64
2022/03/18 03:51:28;;;;;;;58.53;39.13;;;6.80;91.80;;;;;;5052360;28;20190;-64
2022/03/18 03:53:55;;;;;;;55.80;38.58;;;6.80;91.90;;;;;;5059388;28;20190;-64
2022/03/18 03:56:22;;;;;;;51.17;36.25;;;6.80;91.80;;;;;;5072101;28;20580;-64
2022/03/18 03:58:49;;;;;;;61.92;42.03;;;6.80;91.70;;;;;;5065627;28;20187;-64
2022/03/18 04:01:16;;;;;;;52.45;36.53;;;6.80;91.70;;;;;;5052267;28;20209;-64
2022/03/18 04:03:47;;;;;;;58.63;40.55;;;6.70;91.80;;;;;;5056754;28;20185;-64
2022/03/18 04:06:15;;;;;;;57.72;39.78;;;6.70;91.90;;;;;;5072421;28;20554;-64
2022/03/18 04:08:42;;;;;;;61.72;40.90;;;6.70;92.10;;;;;;5067934;28;20182;-64
2022/03/18 04:11:09;;;;;;;50.38;37.08;;;6.70;92.30;;;;;;5052196;28;20190;-64
2022/03/18 04:13:36;;;;;;;56.92;38.30;;;6.70;92.40;;;;;;5053992;28;20189;-64
2022/03/18 04:16:03;;;;;;;52.35;37.83;;;6.70;92.20;;;;;;5072218;28;20220;-64
2022/03/18 04:18:30;;;;;;;55.10;37.88;;;6.70;92.00;;;;;;5053794;28;20196;-64
2022/03/18 04:20:58;;;;;;;54.28;38.90;;;6.60;92.00;;;;;;5052123;28;20197;-64
2022/03/18 04:23:25;;;;;;;56.70;40.20;;;6.60;92.30;;;;;;5063656;28;20190;-64
2022/03/18 04:25:52;;;;;;;51.78;35.60;;;6.70;92.40;;;;;;5051876;28;20194;-64
2022/03/18 04:28:19;;;;;;;58.55;41.17;;;6.70;92.40;;;;;;5051885;28;20194;-64
2022/03/18 04:30:46;;;;;;;55.92;38.75;;;6.80;92.10;;;;;;5052224;28;20586;-64
2022/03/18 04:33:13;;;;;;;57.85;37.35;;;6.80;92.20;;;;;;5064893;28;20591;-64
2022/03/18 04:35:40;;;;;;;54.45;38.10;;;6.80;92.00;;;;;;5071911;28;20566;-64
2022/03/18 04:38:09;;;;;;;53.20;38.53;;;6.80;92.10;;;;;;5059598;28;20190;-64
2022/03/18 04:40:35;;;;;;;49.60;36.67;;;6.80;92.20;;;;;;5051693;28;20190;-64
2022/03/18 04:43:02;;;;;;;57.78;38.88;;;6.90;92.20;;;;;;5052451;28;20186;-64
2022/03/18 04:45:30;;;;;;;55.20;36.78;;;6.90;92.10;;;;;;5054548;28;20182;-64
2022/03/18 04:47:57;;;;;;;52.65;38.05;;;6.90;91.90;;;;;;5055879;28;20186;-64
2022/03/18 04:50:25;;;;;;;56.35;36.78;;;6.90;91.80;;;;;;5062521;28;20189;-64
2022/03/18 04:52:52;;;;;;;50.58;36.53;;;6.90;91.80;;;;;;5075738;28;20193;-64
2022/03/18 04:55:20;;;;;;;48.13;33.20;;;6.90;91.90;;;;;;5069468;28;20202;-64
2022/03/18 04:57:47;;;;;;;46.63;34.58;;;6.80;91.80;;;;;;5055599;28;20196;-64
2022/03/18 05:00:15;;;;;;;47.35;35.30;;;6.80;91.60;;;;;;5059960;28;20266;-64
2022/03/18 05:02:43;;;;;;;49.88;34.42;;;6.80;91.60;;;;;;5075475;28;20237;-65
2022/03/18 05:05:11;;;;;;;47.38;34.05;;;6.80;91.60;;;;;;5071855;28;20189;-64
2022/03/18 05:07:39;;;;;;;45.85;33.95;;;6.80;91.10;;;;;;5059642;28;20611;-65
2022/03/18 05:10:08;;;;;;;48.55;34.22;;;6.70;91.00;;;;;;5073010;28;20217;-64
2022/03/18 05:12:36;;;;;;;47.72;31.85;;;6.70;90.90;;;;;;5055558;28;20260;-66
2022/03/18 05:15:03;;;;;;;54.42;34.63;;;6.60;91.20;;;;;;5056088;28;20247;-65
2022/03/18 05:17:31;;;;;;;44.45;31.38;;;6.60;91.30;;;;;;5075518;28;20217;-64
2022/03/18 05:19:58;;;;;;;41.05;30.52;;;6.60;91.30;;;;;;5075484;28;20489;-65
2022/03/18 05:22:25;;;;;;;48.38;33.22;;;6.50;90.50;;;;;;5074994;28;20224;-64
2022/03/18 05:24:52;;;;;;;48.15;35.13;;;6.40;90.30;;;;;;5075416;28;20196;-65
2022/03/18 05:27:20;;;;;;;50.20;35.45;;;6.30;90.10;;;;;;5056317;28;20183;-64
2022/03/18 05:29:48;;;;;;;48.65;33.28;;;6.20;90.40;;;;;;5055230;28;20193;-65
2022/03/18 05:32:15;;;;;;;47.67;34.22;;;6.10;90.50;;;;;;5071932;28;20190;-65
2022/03/18 05:34:42;;;;;;;55.55;38.65;;;6.10;90.70;;;;;;5074812;28;20691;-64
2022/03/18 05:37:10;;;;;;;54.45;39.90;;;6.10;91.00;;;;;;5058505;28;20222;-64
2022/03/18 05:39:38;;;;;;;49.22;34.25;;;6.10;91.20;;;;;;5055084;28;20186;-64
2022/03/18 05:42:05;;;;;;;51.85;35.97;;;6.10;91.50;;;;;;5054757;28;20199;-64
2022/03/18 05:44:33;;;;;;;53.35;34.83;;;6.10;91.70;;;;;;5055129;28;20225;-64
2022/03/18 05:47:01;;;;;;;52.53;36.72;;;6.10;91.80;;;;;;5054979;28;20213;-64
2022/03/18 05:49:28;;;;;;;53.60;36.13;;;6.10;92.00;;;;;;5055202;28;20187;-64
2022/03/18 05:51:55;;;;;;;52.20;36.50;;;6.20;92.10;;;;;;5069065;28;20190;-64
2022/03/18 05:54:22;;;;;;;53.35;35.35;;;6.20;92.10;;;;;;5075307;28;20530;-64
2022/03/18 05:56:55;;;;;;;46.47;34.15;;;6.30;92.00;;;;;;5059187;28;20295;-64
2022/03/18 05:59:24;;;;;;;55.10;35.15;;;6.20;92.00;;;;;;5055120;28;20194;-65
2022/03/18 06:01:51;;;;;;;52.25;37.33;;;6.30;92.00;;;;;;5067789;28;20186;-65
2022/03/18 06:04:20;;;;;;;51.58;34.95;;;6.30;92.00;;;;;;5074946;28;20197;-64
2022/03/18 06:06:47;;;;;;;45.97;35.58;;;6.30;92.00;;;;;;5060490;28;20186;-64
2022/03/18 06:11:59;;;;;;;56.80;35.85;;;6.40;92.20;;;;;;5065415;28;20196;-66
2022/03/18 06:14:28;;;;;;;52.30;35.55;;;6.40;92.10;;;;;;5048307;28;20193;-65
2022/03/18 06:16:58;;;;;;;44.95;33.25;;;6.40;92.10;;;;;;5052623;28;20226;-64
2022/03/18 06:19:27;;;;;;;41.63;32.80;;;6.50;91.90;;;;;;5052950;28;20199;-64
2022/03/18 06:21:55;;;;;;;43.67;35.00;;;6.60;91.70;;;;;;5052720;28;20194;-65
2022/03/18 06:24:23;;;;;;;43.30;33.92;;;6.60;91.60;;;;;;5052894;28;20194;-64
2022/03/18 06:26:50;;;;;;;43.03;32.28;;;6.60;91.50;;;;;;5052475;28;20194;-64
2022/03/18 06:29:19;;;;;;;46.25;32.50;;;6.60;91.40;;;;;;5052244;28;20550;-65
2022/03/18 06:31:46;;;;;;;47.42;33.97;;;6.70;91.40;;;;;;5052625;28;20265;-64
2022/03/18 06:34:13;;;;;;;43.78;33.75;;;6.80;91.30;;;;;;5052226;28;20234;-64
2022/03/18 06:36:42;;;;;;;41.95;32.40;;;6.90;91.10;;;;;;5052101;28;20222;-64
2022/03/18 06:39:10;;;;;;;39.30;30.52;;;7.00;91.10;;;;;;5052183;28;20221;-64
2022/03/18 06:41:37;;;;;;;43.08;30.73;;;7.00;90.80;;;;;;5052319;28;20190;-65
2022/03/18 06:44:08;;;;;;;45.60;34.53;;;7.10;90.90;;;;;;5052664;28;20190;-64
2022/03/18 06:46:36;;;;;;;46.38;34.03;;;7.10;90.80;;;;;;5052013;28;20190;-64
2022/03/18 06:49:03;;;;;;;45.42;34.55;;;7.20;90.90;;;;;;5052135;28;20202;-64
2022/03/18 06:51:30;;;;;;;49.80;37.40;;;7.20;90.90;;;;;;5052483;28;20194;-64
2022/03/18 06:53:58;;;;;;;54.42;38.53;;;7.20;91.00;;;;;;5052406;28;20560;-65
2022/03/18 06:56:27;;;;;;;45.35;36.00;;;7.30;91.30;;;;;;5051877;28;20288;-64
2022/03/18 06:58:54;;;;;;;50.08;36.65;;;7.50;91.60;;;;;;5052591;28;20209;-64
2022/03/18 07:01:22;;;;;;;54.75;39.80;;;7.70;91.80;;;;;;5052006;28;20190;-64
2022/03/18 07:03:49;;;;;;;56.90;38.95;;;7.90;91.40;;;;;;5051726;28;20186;-64
2022/03/18 07:06:16;;;;;;;49.45;38.08;;;8.10;91.20;;;;;;5048085;28;20194;-64
2022/03/18 07:08:43;;;;;;;58.67;42.72;;;8.30;90.90;;;;;;5050982;28;20187;-64
2022/03/18 07:11:13;;;;;;;54.97;39.10;;;8.50;90.60;;;;;;5052001;28;20195;-65
2022/03/18 07:13:41;;;;;;;49.97;36.97;;;8.60;90.00;;;;;;5051340;28;20604;-65
2022/03/18 07:18:53;;;;;;;59.25;38.08;;;8.90;89.60;;;;;;5051478;28;20196;-65
2022/03/18 07:21:20;;;;;;;56.30;39.90;;;9.00;89.10;;;;;;5051662;28;20232;-65
2022/03/18 07:23:48;;;;;;;51.72;39.30;;;9.10;88.00;;;;;;5051777;28;20614;-64
2022/03/18 07:26:16;;;;;;;49.75;36.50;;;9.20;87.70;;;;;;5051977;28;20202;-65
2022/03/18 07:28:43;;;;;;;52.70;38.95;;;9.20;87.70;;;;;;5051563;28;20244;-66
2022/03/18 07:31:10;;;;;;;58.63;40.90;;;9.30;86.90;;;;;;5051461;28;20191;-64
2022/03/18 07:33:37;;;;;;;57.25;41.95;;;9.40;87.30;;;;;;5051858;28;20677;-65
2022/03/18 07:36:05;;;;;;;52.10;39.72;;;9.50;87.30;;;;;;5051373;28;20560;-65
2022/03/18 07:38:32;;;;;;;52.92;39.75;;;9.50;87.00;;;;;;5047675;28;20195;-65
2022/03/18 07:40:59;;;;;;;52.65;40.15;;;9.60;85.80;;;;;;5051708;28;21587;-65
2022/03/18 07:43:27;;;;;;;55.60;40.67;;;9.80;85.90;;;;;;5051655;28;20183;-65
2022/03/18 07:45:55;;;;;;;47.65;38.45;;;10.00;84.90;;;;;;5052707;28;20194;-66
2022/03/18 07:48:26;;;;;;;56.60;41.10;;;10.10;83.00;;;;;;5051688;28;20244;-65
2022/03/18 07:50:54;;;;;;;48.33;37.20;;;10.40;82.40;;;;;;5052230;28;20535;-65
2022/03/18 07:53:21;;;;;;;50.78;39.08;;;10.50;80.80;;;;;;5051580;28;20197;-66
2022/03/18 07:55:48;;;;;;;51.70;37.55;;;10.70;80.10;;;;;;5047494;28;20186;-64
2022/03/18 07:58:15;;;;;;;53.10;37.25;;;10.90;79.20;;;;;;5051413;28;20204;-64
2022/03/18 08:00:44;;;;;;;48.78;39.33;;;11.00;78.40;;;;;;5052370;28;20264;-64
2022/03/18 08:03:12;;;;;;;52.08;39.92;;;11.30;77.90;;;;;;5053477;28;20273;-65
2022/03/18 08:05:40;;;;;;;49.25;40.08;;;11.50;78.50;;;;;;5052805;28;20231;-64
2022/03/18 08:08:07;;;;;;;49.47;38.75;;;11.70;77.30;;;;;;5050704;28;20268;-64
2022/03/18 08:10:34;;;;;;;47.83;37.08;;;12.00;76.60;;;;;;5053659;28;20236;-65
2022/03/18 08:13:01;;;;;;;50.17;36.85;;;12.40;75.50;;;;;;5068960;28;20182;-65
2022/03/18 08:15:29;;;;;;;51.28;36.03;;;12.90;72.70;;;;;;5072762;28;20243;-66
2022/03/18 08:17:58;;;;;;;44.25;35.08;;;13.30;70.50;;;;;;5072449;28;20321;-65
2022/03/18 08:20:26;;;;;;;46.67;39.75;;;13.40;64.80;;;;;;5072671;28;20201;-65
2022/03/18 08:22:54;;;;;;;46.17;37.27;;;13.40;64.90;;;;;;5072956;28;20189;-66
2022/03/18 08:25:21;;;;;;;49.23;37.97;;;13.30;65.10;;;;;;5072664;28;20440;-65
2022/03/18 08:27:49;;;;;;;45.67;37.60;;;13.20;64.70;;;;;;5072846;28;20436;-65
2022/03/18 08:30:16;;;;;;;46.10;38.53;;;13.20;63.70;;;;;;5072827;28;20454;-65
2022/03/18 08:32:43;;;;;;;47.50;36.23;;;13.40;65.00;;;;;;5072747;28;20778;-65
2022/03/18 08:35:12;;;;;;;47.30;37.53;;;13.70;64.50;;;;;;5072896;28;21015;-65
2022/03/18 08:37:57;;;;;;;43.13;38.07;;;14.10;64.30;;;;;;5072748;28;20479;-65
2022/03/18 08:40:25;;;;;;;44.60;37.00;;;14.70;62.50;;;;;;5072796;28;20444;-65
2022/03/18 08:42:53;;;;;;;47.80;36.00;;;15.90;61.30;;;;;;5072815;28;20432;-65
2022/03/18 08:45:20;;;;;;;38.30;34.10;;;17.10;57.60;;;;;;5072848;28;20436;-65
2022/03/18 08:47:47;;;;;;;43.40;35.70;;;18.10;55.30;;;;;;5072513;28;20911;-65
2022/03/18 08:50:16;;;;;;;39.87;33.97;;;19.00;51.60;;;;;;5072715;28;20440;-65
2022/03/18 08:52:45;;;;;;;36.87;32.87;;;19.50;48.50;;;;;;5072508;28;20467;-65
2022/03/18 08:55:12;;;;;;;38.43;34.23;;;19.60;45.40;;;;;;5072650;28;20444;-65
2022/03/18 08:57:40;;;;;;;41.03;35.40;;;19.80;44.10;;;;;;5072357;28;20479;-65
2022/03/18 09:00:09;;;;;;;41.87;37.47;;;20.10;42.90;;;;;;5072450;28;20489;-65
2022/03/18 09:02:36;;;;;;;40.37;36.00;;;19.70;42.20;;;;;;5072713;28;20842;-66
2022/03/18 09:05:04;;;;;;;41.30;35.37;;;19.30;40.70;;;;;;5071917;28;20436;-65
2022/03/18 09:07:33;;;;;;;41.30;34.47;;;18.70;42.10;;;;;;5072238;28;20432;-65
2022/03/18 09:10:00;;;;;;;40.43;36.07;;;18.40;43.80;;;;;;5072363;28;20435;-65
2022/03/18 09:12:27;;;;;;;40.97;32.57;;;18.10;43.20;;;;;;5072447;28;20501;-65
2022/03/18 09:14:55;;;;;;;38.50;33.73;;;17.70;43.30;;;;;;5072503;28;20493;-65
2022/03/18 09:17:22;;;;;;;42.37;35.77;;;17.30;43.60;;;;;;5072444;28;20668;-65
2022/03/18 09:19:49;;;;;;;40.47;35.17;;;16.90;43.90;;;;;;5072262;28;20458;-64
2022/03/18 09:22:16;;;;;;;42.13;35.20;;;16.50;44.80;;;;;;5072359;28;20488;-64
2022/03/18 09:24:46;;;;;;;40.43;33.53;;;16.40;46.40;;;;;;5072421;28;20443;-64
2022/03/18 09:27:14;;;;;;;42.90;35.63;;;16.70;45.20;;;;;;5072487;28;20432;-64
2022/03/18 09:29:41;;;;;;;36.93;32.40;;;17.00;46.40;;;;;;5071885;28;20444;-64
2022/03/18 09:32:09;;;;;;;37.50;31.93;;;16.90;44.00;;;;;;5074993;28;20440;-65
2022/03/18 09:34:37;;;;;;;37.23;32.97;;;17.30;46.50;;;;;;5075986;28;20463;-65
2022/03/18 09:37:04;;;;;;;37.87;31.57;;;18.20;44.20;;;;;;5075637;28;20505;-66
2022/03/18 09:39:32;;;;;;;36.97;31.07;;;18.40;42.50;;;;;;5075547;28;20494;-64
2022/03/18 09:42:00;;;;;;;37.40;31.47;;;18.20;41.40;;;;;;5075654;28;20912;-65
2022/03/18 09:44:34;;;;;;;39.00;30.80;;;18.00;42.90;;;;;;5075644;28;20440;-64
2022/03/18 09:47:02;;;;;;;39.03;32.53;;;18.10;41.70;;;;;;5075796;28;20486;-65
2022/03/18 09:49:29;;;;;;;36.27;31.07;;;18.70;42.70;;;;;;5075286;28;20510;-65
2022/03/18 09:51:57;;;;;;;34.20;30.50;;;20.00;42.10;;;;;;5075427;28;20448;-65
2022/03/18 09:54:24;;;;;;;33.07;29.63;;;21.30;43.50;;;;;;5075514;28;20505;-65
2022/03/18 09:56:51;;;;;;;34.10;30.33;;;23.20;39.20;;;;;;5075096;28;20486;-65
2022/03/18 09:59:21;;;;;;;33.60;30.20;;;24.70;38.00;;;;;;5075398;28;20427;-65
2022/03/18 10:01:49;;;;;;;33.77;30.03;;;25.50;32.00;;;;;;5075278;28;20772;-65
2022/03/18 10:04:16;;;;;;;34.67;30.97;;;24.90;31.00;;;;;;5075417;28;20505;-66
2022/03/18 10:06:44;;;;;;;33.63;30.40;;;25.10;30.90;;;;;;5075521;28;20497;-65
2022/03/18 10:09:12;;;;;;;32.97;29.50;;;25.10;29.60;;;;;;5075268;28;20443;-65
2022/03/18 10:11:43;;;;;;;31.07;28.03;;;26.10;28.80;;;;;;5075311;28;20436;-65
2022/03/18 10:14:14;;;;;;;30.00;27.00;;;26.70;27.60;;;;;;5075248;28;20440;-67
2022/03/18 10:16:44;;;;;;;29.37;26.50;;;27.80;27.70;;;;;;5074993;28;20489;-66
2022/03/18 10:19:12;;;;;;;33.33;30.13;;;29.00;24.00;;;;;;5075012;28;20443;-65
2022/03/18 10:21:51;;;;;;;31.60;28.40;;;29.80;24.50;;;;;;5075025;28;20436;-65
2022/03/18 10:24:22;;;;;;;31.10;28.10;;;30.70;21.60;;;;;;5075029;28;20432;-65
2022/03/18 10:26:50;;;;;;;35.00;28.13;;;30.90;21.20;;;;;;5074980;28;20930;-66
2022/03/18 10:29:17;;;;;;;29.67;26.93;;;31.60;20.20;;;;;;5074386;28;21031;-65
2022/03/18 10:32:00;;;;;;;30.83;27.27;;;32.10;18.40;;;;;;5074708;28;20966;-66
2022/03/18 10:37:21;;;;;;;26.10;23.67;;;33.70;17.90;;;;;;5074835;28;20620;-66
2022/03/18 10:39:50;;;;;;;27.97;25.27;;;35.20;17.40;;;;;;5074943;28;20946;-66
2022/03/18 10:42:18;;;;;;;28.03;25.10;;;36.20;16.30;;;;;;5074632;28;20440;-66
2022/03/18 10:44:48;;;;;;;26.37;24.10;;;36.90;15.50;;;;;;5074319;28;20926;-66
2022/03/18 10:47:32;;;;;;;24.77;22.43;;;37.30;13.70;;;;;;5074251;28;20436;-66
2022/03/18 10:50:15;;;;;;;25.80;23.53;;;37.50;13.40;;;;;;5072735;28;20444;-66
2022/03/18 10:52:59;;;;;;;25.57;23.30;;;36.90;12.30;;;;;;5072932;28;20448;-66
2022/03/18 10:55:29;;;;;;;24.27;22.13;;;36.90;14.70;;;;;;5074516;28;20451;-66
2022/03/18 10:57:59;;;;;;;24.43;22.17;;;37.90;12.30;;;;;;5073924;28;20492;-63
2022/03/18 11:00:28;;;;;;;24.57;22.57;;;37.30;11.50;;;;;;5074422;28;20467;-63
2022/03/18 11:02:58;;;;;;;25.40;23.30;;;37.00;11.80;;;;;;5073972;28;20439;-63
2022/03/18 11:05:26;;;;;;;26.70;24.20;;;36.60;11.20;;;;;;5073948;28;20436;-65
2022/03/18 11:07:55;;;;;;;25.07;22.83;;;35.80;12.20;;;;;;5074122;28;20424;-64
2022/03/18 11:13:09;;;;;;;22.77;20.53;;;36.20;13.40;;;;;;5073790;28;20419;-63
2022/03/18 11:15:39;;;;;;;22.70;20.70;;;36.90;12.60;;;;;;5073743;28;20483;-63
2022/03/18 11:18:11;;;;;;;24.73;22.57;;;37.20;12.90;;;;;;5073537;28;20739;-63
2022/03/18 11:20:42;;;;;;;25.97;23.60;;;37.40;11.70;;;;;;5073598;28;20494;-63
2022/03/18 11:23:16;;;;;;;28.07;24.27;;;37.50;11.50;;;;;;5073835;28;20436;-63
2022/03/18 11:25:45;;;;;;;26.03;23.63;;;36.60;11.30;;;;;;5073803;28;20458;-63
2022/03/18 11:28:16;;;;;;;26.00;23.70;;;35.10;12.00;;;;;;5073494;28;20502;-63
2022/03/18 11:30:43;;;;;;;29.27;26.67;;;34.10;12.30;;;;;;5073653;28;20447;-63
2022/03/18 11:33:22;;;;;;;29.03;26.40;;;32.80;13.40;;;;;;5073191;28;20521;-63
2022/03/18 11:36:13;;;;;;;28.40;25.60;;;32.40;14.30;;;;;;5073786;28;20512;-63
2022/03/18 11:39:06;;;;;;;26.93;24.40;;;32.40;14.40;;;;;;5073380;28;20505;-63
2022/03/18 11:41:54;;;;;;;26.57;24.10;;;32.70;14.20;;;;;;5073468;28;20444;-63
2022/03/18 11:45:00;;;;;;;27.37;24.77;;;33.20;14.60;;;;;;5073550;28;20926;-63
2022/03/18 11:47:50;;;;;;;26.37;24.07;;;33.60;14.70;;;;;;5073344;28;20484;-63
2022/03/18 11:50:52;;;;;;;27.37;25.00;;;33.60;13.00;;;;;;5073466;28;20482;-63
2022/03/18 11:53:53;;;;;;;25.90;23.60;;;33.60;13.80;;;;;;5010729;28;20474;-63
2022/03/18 11:56:22;;;;;;;24.87;22.73;;;33.60;14.30;;;;;;5072999;28;20432;-63
2022/03/18 11:58:49;;;;;;;25.40;23.10;;;33.50;13.60;;;;;;5073053;28;20444;-63
2022/03/18 12:01:41;;;;;;;26.10;23.50;;;33.20;14.20;;;;;;5073293;28;20444;-63
2022/03/18 12:04:09;;;;;;;23.47;21.37;;;32.70;14.10;;;;;;5073186;28;20460;-62
2022/03/18 12:07:12;;;;;;;22.00;20.07;;;32.30;13.80;;;;;;5073170;28;20436;-62
2022/03/18 12:09:49;;;;;;;26.60;23.80;;;30.80;13.60;;;;;;5073256;28;20431;-62
2022/03/18 12:12:17;;;;;;;23.47;21.23;;;29.50;15.60;;;;;;5072846;28;20462;-62
2022/03/18 12:14:44;;;;;;;22.97;20.67;;;29.30;16.60;;;;;;5072792;28;20862;-62
2022/03/18 12:17:11;;;;;;;22.97;20.50;;;29.70;16.20;;;;;;5073007;28;20481;-63
2022/03/18 12:19:38;;;;;;;24.00;21.70;;;30.90;16.10;;;;;;5054870;28;20464;-62
2022/03/18 12:22:07;;;;;;;21.20;19.23;;;32.40;15.30;;;;;;5052587;28;20440;-63
2022/03/18 12:24:35;;;;;;;20.10;18.13;;;32.90;13.70;;;;;;5053755;28;20461;-63
2022/03/18 12:27:02;;;;;;;21.47;19.43;;;33.00;13.30;;;;;;5063754;28;20433;-62
2022/03/18 12:29:30;;;;;;;20.10;18.17;;;32.10;13.30;;;;;;5052457;28;20432;-62
2022/03/18 12:32:09;;;;;;;21.93;19.93;;;31.80;13.80;;;;;;5052591;28;20451;-63
2022/03/18 12:34:38;;;;;;;22.67;18.97;;;31.40;13.60;;;;;;5072541;28;21010;-63
2022/03/18 12:37:17;;;;;;;21.97;19.97;;;31.40;14.80;;;;;;5070931;28;20443;-63
2022/03/18 12:39:45;;;;;;;20.97;19.03;;;31.90;14.00;;;;;;5052798;28;20939;-63
2022/03/18 12:42:12;;;;;;;21.63;19.43;;;32.40;14.20;;;;;;5052419;28;20476;-62
2022/03/18 12:44:44;;;;;;;20.23;18.17;;;33.00;12.90;;;;;;5052529;28;20932;-63
2022/03/18 12:47:12;;;;;;;21.50;19.20;;;32.90;12.80;;;;;;5052365;28;20472;-63
2022/03/18 12:49:40;;;;;;;19.83;18.03;;;32.60;12.00;;;;;;5072660;28;20443;-62
2022/03/18 12:52:09;;;;;;;20.07;18.10;;;32.10;12.30;;;;;;5072835;28;20561;-63
2022/03/18 12:54:36;;;;;;;19.60;17.80;;;32.20;12.80;;;;;;5068106;28;20504;-63
2022/03/18 12:57:08;;;;;;;20.90;18.77;;;31.80;13.20;;;;;;5051388;28;20447;-63
2022/03/18 12:59:37;;;;;;;22.00;16.90;;;31.80;13.60;;;;;;5064962;28;20438;-63
2022/03/18 13:02:05;;;;;;;22.13;20.03;;;31.70;13.10;;;;;;5052775;28;20439;-63